Laurelville, Ohio
Current Conditions -  °F | °C
As of 9:35 PM on Sunday 25 Jan 2015 (Local Time) from KRZT Reporting Station
Light Rain Light Rain  
Wind Chill: 31°   Ceiling: 600
Heat Index: 36°   Visibility: 4mi
Dew Point: 36°   Wind: 6mph
Humidity: 100%   Direction: 20°NNE
Pressure: 29.73"   Gusts: NA
Location:  39.47°N, 82.74°W
Report Text: KRZT 260235Z AUTO 02005KT 4SM -RA BKN006 OVC027 02/02 A2973 RMK AO2 P0001
Loading
Personal Weather Stations






























Interactive Weather Map New forecast layout! Learn more

10-Day Weather Forecast

Advertisements
Track Severe Weather on mobile